DIFLI EDLW-ZZZZ

Flight info

Callsign DIFLI
Flight time N/A
Altitude
Route
Aircraft DA42

Departure

Time 2026-05-06 15:44
Airport Dortmund Airport (EDLW)

Arrival

Time N/A
Airport ZZZZ
Time Latitude Longitude Altitude Speed Heading
2026-05-06 15:37 51.51254 7.60556 458 ft 0 kts 103°
2026-05-06 15:40 51.51248 7.60561 459 ft 5 kts 225°
2026-05-06 15:40 51.51229 7.60386 452 ft 21 kts 237°
2026-05-06 15:41 51.51153 7.60175 456 ft 19 kts 303°
2026-05-06 15:41 51.51253 7.60326 444 ft 34 kts 63°
2026-05-06 15:41 51.51377 7.60672 429 ft 32 kts 60°
2026-05-06 15:41 51.51494 7.61013 428 ft 32 kts 63°
2026-05-06 15:42 51.51571 7.60957 425 ft 20 kts 253°
2026-05-06 15:42 51.51550 7.60841 421 ft 4 kts 257°
2026-05-06 15:42 51.51542 7.60802 422 ft 15 kts 254°
2026-05-06 15:42 51.51528 7.60676 420 ft 0 kts 283°
2026-05-06 15:43 51.51601 7.60611 415 ft 21 kts 17°
2026-05-06 15:43 51.51756 7.60992 415 ft 65 kts 56°
2026-05-06 15:44 51.52006 7.61734 536 ft 80 kts 57°
2026-05-06 15:44 51.52303 7.62529 759 ft 85 kts 54°
2026-05-06 15:44 51.52762 7.63128 865 ft 93 kts
2026-05-06 15:44 51.53391 7.62725 1026 ft 100 kts 334°
2026-05-06 15:45 51.53386 7.61666 978 ft 112 kts 242°
2026-05-06 15:45 51.53016 7.60762 1078 ft 94 kts 240°
2026-05-06 15:45 51.52636 7.59869 1075 ft 99 kts 238°
2026-05-06 15:45 51.52214 7.58918 1136 ft 104 kts 236°
2026-05-06 15:46 51.51787 7.58148 1120 ft 89 kts 210°
2026-05-06 15:46 51.51215 7.58357 977 ft 85 kts 123°
2026-05-06 15:46 51.51157 7.59217 637 ft 85 kts 60°
2026-05-06 15:46 51.51428 7.60055 515 ft 84 kts 59°
2026-05-06 15:47 51.51681 7.60797 425 ft 69 kts 55°
2026-05-06 15:47 51.51902 7.61427 450 ft 68 kts 61°
2026-05-06 15:47 51.52156 7.62109 630 ft 75 kts 51°
2026-05-06 15:47 51.52516 7.62885 809 ft 98 kts 59°
2026-05-06 15:48 51.52996 7.63509 953 ft 105 kts 348°
2026-05-06 15:48 51.53646 7.62955 1176 ft 106 kts 304°
2026-05-06 15:48 51.53427 7.61688 1232 ft 121 kts 244°
2026-05-06 15:48 51.53043 7.60657 1212 ft 100 kts 239°
2026-05-06 15:49 51.52622 7.59628 1231 ft 116 kts 238°
2026-05-06 15:49 51.52169 7.58622 1125 ft 105 kts 236°
2026-05-06 15:49 51.51539 7.58239 921 ft 107 kts 163°
2026-05-06 15:49 51.51021 7.58835 763 ft 92 kts 103°
2026-05-06 15:50 51.51249 7.59611 586 ft 77 kts 53°
2026-05-06 15:50 51.51530 7.60370 512 ft 78 kts 60°
2026-05-06 15:50 51.51783 7.61085 423 ft 68 kts 58°
2026-05-06 15:50 51.51981 7.61650 413 ft 55 kts 63°
2026-05-06 15:51 51.52151 7.62125 409 ft 48 kts 59°
2026-05-06 15:51 51.52144 7.62350 408 ft 16 kts 152°
2026-05-06 15:51 51.52111 7.62379 407 ft 1 kts 149°
2026-05-06 15:51 51.52095 7.62393 407 ft 7 kts 149°
2026-05-06 15:52 51.52028 7.62321 407 ft 16 kts 244°
2026-05-06 15:52 51.51972 7.62164 411 ft 18 kts 240°
2026-05-06 15:52 51.51942 7.62077 411 ft 10 kts 242°
2026-05-06 15:52 51.51866 7.61860 414 ft 34 kts 241°
2026-05-06 15:53 51.51757 7.61549 419 ft 31 kts 247°
2026-05-06 15:53 51.51663 7.61283 422 ft 25 kts 241°
2026-05-06 15:53 51.51582 7.61060 426 ft 18 kts 218°
2026-05-06 15:53 51.51489 7.60997 431 ft 19 kts 240°
2026-05-06 15:54 51.51422 7.60802 433 ft 21 kts 239°
2026-05-06 15:54 51.51323 7.60524 441 ft 32 kts 242°
2026-05-06 15:54 51.51208 7.60196 448 ft 25 kts 235°
2026-05-06 15:54 51.51161 7.60230 456 ft 4 kts 52°
2026-05-06 15:55 51.51161 7.60231 456 ft 0 kts 50°
2026-05-06 15:55 51.51168 7.60246 456 ft 9 kts 52°
2026-05-06 15:55 51.51215 7.60353 453 ft 6 kts 61°
2026-05-06 15:56 51.51224 7.60434 456 ft 7 kts 103°
2026-05-06 15:56 51.51219 7.60460 458 ft 0 kts 104°